sensor_id;sensor_type;location;lat;lon;timestamp;P1;durP1;ratioP1;P2;durP2;ratioP2
79691;SDS011;69158;55.592;37.610;2023-04-25T00:01:59;18.80;;;9.52;;
79691;SDS011;69158;55.592;37.610;2023-04-25T00:04:45;17.00;;;9.65;;
79691;SDS011;69158;55.592;37.610;2023-04-25T00:07:34;19.58;;;7.20;;
79691;SDS011;69158;55.592;37.610;2023-04-25T00:10:20;16.77;;;9.05;;
79691;SDS011;69158;55.592;37.610;2023-04-25T00:13:06;17.95;;;8.13;;
79691;SDS011;69158;55.592;37.610;2023-04-25T00:15:53;18.55;;;7.07;;
79691;SDS011;69158;55.592;37.610;2023-04-25T00:18:39;19.67;;;7.40;;
79691;SDS011;69158;55.592;37.610;2023-04-25T00:21:26;8.82;;;3.28;;
79691;SDS011;69158;55.592;37.610;2023-04-25T00:24:12;13.90;;;5.75;;
79691;SDS011;69158;55.592;37.610;2023-04-25T00:26:58;16.70;;;6.05;;
79691;SDS011;69158;55.592;37.610;2023-04-25T00:29:44;17.80;;;6.90;;
79691;SDS011;69158;55.592;37.610;2023-04-25T00:32:30;17.52;;;7.30;;
79691;SDS011;69158;55.592;37.610;2023-04-25T00:35:16;17.85;;;8.85;;
79691;SDS011;69158;55.592;37.610;2023-04-25T00:38:02;16.00;;;9.13;;
79691;SDS011;69158;55.592;37.610;2023-04-25T00:40:48;21.23;;;8.07;;
79691;SDS011;69158;55.592;37.610;2023-04-25T00:43:34;15.20;;;8.55;;
79691;SDS011;69158;55.592;37.610;2023-04-25T00:46:22;18.88;;;8.52;;
79691;SDS011;69158;55.592;37.610;2023-04-25T00:49:07;18.10;;;7.40;;
79691;SDS011;69158;55.592;37.610;2023-04-25T00:51:53;16.48;;;8.60;;
79691;SDS011;69158;55.592;37.610;2023-04-25T00:54:40;15.55;;;8.57;;
79691;SDS011;69158;55.592;37.610;2023-04-25T00:57:26;15.93;;;7.38;;
79691;SDS011;69158;55.592;37.610;2023-04-25T01:00:14;17.95;;;7.50;;
79691;SDS011;69158;55.592;37.610;2023-04-25T01:03:00;18.35;;;9.45;;
79691;SDS011;69158;55.592;37.610;2023-04-25T01:05:48;18.05;;;7.68;;
79691;SDS011;69158;55.592;37.610;2023-04-25T01:08:36;20.52;;;8.93;;
79691;SDS011;69158;55.592;37.610;2023-04-25T01:11:23;14.63;;;7.53;;
79691;SDS011;69158;55.592;37.610;2023-04-25T01:14:09;15.18;;;7.57;;
79691;SDS011;69158;55.592;37.610;2023-04-25T01:16:55;20.98;;;8.80;;
79691;SDS011;69158;55.592;37.610;2023-04-25T01:19:41;15.30;;;7.53;;
79691;SDS011;69158;55.592;37.610;2023-04-25T01:22:27;17.83;;;8.50;;
79691;SDS011;69158;55.592;37.610;2023-04-25T01:25:14;16.58;;;9.05;;
79691;SDS011;69158;55.592;37.610;2023-04-25T01:28:01;16.15;;;8.52;;
79691;SDS011;69158;55.592;37.610;2023-04-25T01:30:49;16.83;;;9.00;;
79691;SDS011;69158;55.592;37.610;2023-04-25T01:33:36;17.25;;;7.55;;
79691;SDS011;69158;55.592;37.610;2023-04-25T01:36:23;17.88;;;7.97;;
79691;SDS011;69158;55.592;37.610;2023-04-25T01:39:09;15.90;;;8.48;;
79691;SDS011;69158;55.592;37.610;2023-04-25T01:41:55;16.35;;;9.38;;
79691;SDS011;69158;55.592;37.610;2023-04-25T01:44:41;19.88;;;8.18;;
79691;SDS011;69158;55.592;37.610;2023-04-25T01:47:27;12.77;;;7.20;;
79691;SDS011;69158;55.592;37.610;2023-04-25T01:50:13;16.58;;;9.15;;
79691;SDS011;69158;55.592;37.610;2023-04-25T01:53:01;21.20;;;9.85;;
79691;SDS011;69158;55.592;37.610;2023-04-25T01:55:47;17.45;;;9.00;;
79691;SDS011;69158;55.592;37.610;2023-04-25T01:58:33;18.45;;;9.15;;
79691;SDS011;69158;55.592;37.610;2023-04-25T02:01:19;16.45;;;9.30;;
79691;SDS011;69158;55.592;37.610;2023-04-25T02:04:05;22.83;;;9.05;;
79691;SDS011;69158;55.592;37.610;2023-04-25T02:06:51;15.63;;;7.60;;
79691;SDS011;69158;55.592;37.610;2023-04-25T02:09:37;17.95;;;8.82;;
79691;SDS011;69158;55.592;37.610;2023-04-25T02:12:23;18.65;;;10.10;;
79691;SDS011;69158;55.592;37.610;2023-04-25T02:15:11;19.33;;;9.60;;
79691;SDS011;69158;55.592;37.610;2023-04-25T02:17:58;13.57;;;9.00;;
79691;SDS011;69158;55.592;37.610;2023-04-25T02:20:45;17.10;;;9.30;;
79691;SDS011;69158;55.592;37.610;2023-04-25T02:23:31;15.18;;;6.93;;
79691;SDS011;69158;55.592;37.610;2023-04-25T02:26:17;19.40;;;8.85;;
79691;SDS011;69158;55.592;37.610;2023-04-25T02:29:03;18.55;;;7.55;;
79691;SDS011;69158;55.592;37.610;2023-04-25T02:31:49;24.10;;;9.05;;
79691;SDS011;69158;55.592;37.610;2023-04-25T02:34:35;17.63;;;10.07;;
79691;SDS011;69158;55.592;37.610;2023-04-25T02:37:21;22.80;;;9.93;;
79691;SDS011;69158;55.592;37.610;2023-04-25T02:40:08;19.77;;;8.98;;
79691;SDS011;69158;55.592;37.610;2023-04-25T02:42:54;17.00;;;9.98;;
79691;SDS011;69158;55.592;37.610;2023-04-25T02:45:40;18.50;;;8.95;;
79691;SDS011;69158;55.592;37.610;2023-04-25T02:48:26;18.63;;;9.50;;
79691;SDS011;69158;55.592;37.610;2023-04-25T02:51:12;17.38;;;9.38;;
79691;SDS011;69158;55.592;37.610;2023-04-25T02:53:59;16.95;;;9.25;;
79691;SDS011;69158;55.592;37.610;2023-04-25T02:56:45;17.30;;;9.52;;
79691;SDS011;69158;55.592;37.610;2023-04-25T02:59:31;20.60;;;10.70;;
79691;SDS011;69158;55.592;37.610;2023-04-25T03:02:17;21.65;;;10.55;;
79691;SDS011;69158;55.592;37.610;2023-04-25T03:05:03;23.08;;;12.40;;
79691;SDS011;69158;55.592;37.610;2023-04-25T03:07:50;23.63;;;11.90;;
79691;SDS011;69158;55.592;37.610;2023-04-25T03:10:36;19.75;;;11.75;;
79691;SDS011;69158;55.592;37.610;2023-04-25T03:13:23;22.45;;;13.57;;
79691;SDS011;69158;55.592;37.610;2023-04-25T03:16:10;22.55;;;13.18;;
79691;SDS011;69158;55.592;37.610;2023-04-25T03:18:56;22.23;;;10.52;;
79691;SDS011;69158;55.592;37.610;2023-04-25T03:21:43;20.88;;;13.23;;
79691;SDS011;69158;55.592;37.610;2023-04-25T03:24:29;19.00;;;9.80;;
79691;SDS011;69158;55.592;37.610;2023-04-25T03:27:14;24.73;;;13.25;;
79691;SDS011;69158;55.592;37.610;2023-04-25T03:30:02;20.65;;;11.45;;
79691;SDS011;69158;55.592;37.610;2023-04-25T03:32:48;22.65;;;11.60;;
79691;SDS011;69158;55.592;37.610;2023-04-25T03:35:35;20.02;;;12.70;;
79691;SDS011;69158;55.592;37.610;2023-04-25T03:38:21;19.65;;;10.45;;
79691;SDS011;69158;55.592;37.610;2023-04-25T03:41:07;24.50;;;13.30;;
79691;SDS011;69158;55.592;37.610;2023-04-25T03:43:53;18.92;;;10.52;;
79691;SDS011;69158;55.592;37.610;2023-04-25T03:46:39;23.70;;;12.48;;
79691;SDS011;69158;55.592;37.610;2023-04-25T03:49:25;20.80;;;10.48;;
79691;SDS011;69158;55.592;37.610;2023-04-25T03:52:11;27.35;;;13.77;;
79691;SDS011;69158;55.592;37.610;2023-04-25T03:54:57;23.23;;;12.65;;
79691;SDS011;69158;55.592;37.610;2023-04-25T03:57:43;21.58;;;10.90;;
79691;SDS011;69158;55.592;37.610;2023-04-25T04:00:38;22.58;;;11.10;;
79691;SDS011;69158;55.592;37.610;2023-04-25T04:03:24;25.70;;;14.45;;
79691;SDS011;69158;55.592;37.610;2023-04-25T04:06:11;20.80;;;12.10;;
79691;SDS011;69158;55.592;37.610;2023-04-25T04:08:58;19.52;;;11.25;;
79691;SDS011;69158;55.592;37.610;2023-04-25T04:11:44;21.98;;;10.65;;
79691;SDS011;69158;55.592;37.610;2023-04-25T04:14:30;23.13;;;10.13;;
79691;SDS011;69158;55.592;37.610;2023-04-25T04:17:16;21.60;;;11.52;;
79691;SDS011;69158;55.592;37.610;2023-04-25T04:20:02;20.98;;;11.00;;
79691;SDS011;69158;55.592;37.610;2023-04-25T04:22:49;20.48;;;9.98;;
79691;SDS011;69158;55.592;37.610;2023-04-25T04:25:35;21.00;;;11.40;;
79691;SDS011;69158;55.592;37.610;2023-04-25T04:28:21;22.25;;;11.45;;
79691;SDS011;69158;55.592;37.610;2023-04-25T04:31:07;26.30;;;12.88;;
79691;SDS011;69158;55.592;37.610;2023-04-25T04:33:54;21.88;;;12.10;;
79691;SDS011;69158;55.592;37.610;2023-04-25T04:36:40;21.95;;;10.23;;
79691;SDS011;69158;55.592;37.610;2023-04-25T04:39:26;26.42;;;13.15;;
79691;SDS011;69158;55.592;37.610;2023-04-25T04:42:13;20.70;;;11.93;;
79691;SDS011;69158;55.592;37.610;2023-04-25T04:44:59;22.13;;;12.43;;
79691;SDS011;69158;55.592;37.610;2023-04-25T04:47:47;17.92;;;11.73;;
79691;SDS011;69158;55.592;37.610;2023-04-25T04:50:34;24.55;;;13.18;;
79691;SDS011;69158;55.592;37.610;2023-04-25T04:53:21;19.70;;;12.80;;
79691;SDS011;69158;55.592;37.610;2023-04-25T04:56:06;18.27;;;11.88;;
79691;SDS011;69158;55.592;37.610;2023-04-25T04:58:52;19.15;;;10.85;;
79691;SDS011;69158;55.592;37.610;2023-04-25T05:01:39;19.92;;;12.70;;
79691;SDS011;69158;55.592;37.610;2023-04-25T05:04:26;20.85;;;11.27;;
79691;SDS011;69158;55.592;37.610;2023-04-25T05:07:11;18.30;;;12.07;;
79691;SDS011;69158;55.592;37.610;2023-04-25T05:09:57;20.25;;;12.02;;
79691;SDS011;69158;55.592;37.610;2023-04-25T05:12:44;16.23;;;9.73;;
79691;SDS011;69158;55.592;37.610;2023-04-25T05:15:30;16.23;;;10.45;;
79691;SDS011;69158;55.592;37.610;2023-04-25T05:18:16;16.02;;;10.13;;
79691;SDS011;69158;55.592;37.610;2023-04-25T05:21:02;17.40;;;9.85;;
79691;SDS011;69158;55.592;37.610;2023-04-25T05:23:48;19.02;;;9.02;;
79691;SDS011;69158;55.592;37.610;2023-04-25T05:26:37;17.17;;;9.20;;
79691;SDS011;69158;55.592;37.610;2023-04-25T05:29:24;15.82;;;10.63;;
79691;SDS011;69158;55.592;37.610;2023-04-25T05:32:10;19.92;;;9.35;;
79691;SDS011;69158;55.592;37.610;2023-04-25T05:37:48;15.02;;;7.90;;
79691;SDS011;69158;55.592;37.610;2023-04-25T05:40:35;17.88;;;9.98;;
79691;SDS011;69158;55.592;37.610;2023-04-25T05:43:23;18.98;;;7.85;;
79691;SDS011;69158;55.592;37.610;2023-04-25T05:46:11;15.27;;;7.28;;
79691;SDS011;69158;55.592;37.610;2023-04-25T05:48:57;22.15;;;10.20;;
79691;SDS011;69158;55.592;37.610;2023-04-25T05:51:44;23.38;;;7.78;;
79691;SDS011;69158;55.592;37.610;2023-04-25T05:54:47;16.33;;;8.63;;
79691;SDS011;69158;55.592;37.610;2023-04-25T05:57:33;16.98;;;7.57;;
79691;SDS011;69158;55.592;37.610;2023-04-25T06:00:19;16.40;;;8.85;;
79691;SDS011;69158;55.592;37.610;2023-04-25T06:03:07;17.08;;;8.60;;
79691;SDS011;69158;55.592;37.610;2023-04-25T06:05:55;18.90;;;9.38;;
79691;SDS011;69158;55.592;37.610;2023-04-25T06:08:41;19.60;;;10.32;;
79691;SDS011;69158;55.592;37.610;2023-04-25T06:11:27;19.65;;;10.73;;
79691;SDS011;69158;55.592;37.610;2023-04-25T06:14:13;15.82;;;10.90;;
79691;SDS011;69158;55.592;37.610;2023-04-25T06:16:59;17.88;;;7.97;;
79691;SDS011;69158;55.592;37.610;2023-04-25T06:19:46;16.98;;;8.15;;
79691;SDS011;69158;55.592;37.610;2023-04-25T06:22:32;17.60;;;8.80;;
79691;SDS011;69158;55.592;37.610;2023-04-25T06:25:18;16.70;;;8.18;;
79691;SDS011;69158;55.592;37.610;2023-04-25T06:28:04;18.17;;;9.23;;
79691;SDS011;69158;55.592;37.610;2023-04-25T06:30:50;17.48;;;7.75;;
79691;SDS011;69158;55.592;37.610;2023-04-25T06:33:36;15.95;;;6.55;;
79691;SDS011;69158;55.592;37.610;2023-04-25T06:36:25;14.35;;;7.43;;
79691;SDS011;69158;55.592;37.610;2023-04-25T06:39:13;15.95;;;6.72;;
79691;SDS011;69158;55.592;37.610;2023-04-25T06:41:59;13.18;;;6.30;;
79691;SDS011;69158;55.592;37.610;2023-04-25T06:44:45;13.02;;;5.95;;
79691;SDS011;69158;55.592;37.610;2023-04-25T06:47:31;13.05;;;6.97;;
79691;SDS011;69158;55.592;37.610;2023-04-25T06:50:17;12.48;;;6.75;;
79691;SDS011;69158;55.592;37.610;2023-04-25T06:53:03;14.02;;;7.72;;
79691;SDS011;69158;55.592;37.610;2023-04-25T06:55:49;15.13;;;7.72;;
79691;SDS011;69158;55.592;37.610;2023-04-25T06:58:35;18.70;;;8.95;;
79691;SDS011;69158;55.592;37.610;2023-04-25T07:01:21;19.70;;;8.73;;
79691;SDS011;69158;55.592;37.610;2023-04-25T07:04:06;19.40;;;8.38;;
79691;SDS011;69158;55.592;37.610;2023-04-25T07:06:52;16.27;;;8.05;;
79691;SDS011;69158;55.592;37.610;2023-04-25T07:09:38;13.43;;;7.82;;
79691;SDS011;69158;55.592;37.610;2023-04-25T07:12:25;15.32;;;8.63;;
79691;SDS011;69158;55.592;37.610;2023-04-25T07:15:10;14.45;;;7.38;;
79691;SDS011;69158;55.592;37.610;2023-04-25T07:17:57;17.60;;;7.53;;
79691;SDS011;69158;55.592;37.610;2023-04-25T07:20:42;16.67;;;9.40;;
79691;SDS011;69158;55.592;37.610;2023-04-25T07:23:29;16.15;;;5.93;;
79691;SDS011;69158;55.592;37.610;2023-04-25T07:26:15;10.93;;;5.95;;
79691;SDS011;69158;55.592;37.610;2023-04-25T07:29:01;14.32;;;7.97;;
79691;SDS011;69158;55.592;37.610;2023-04-25T07:31:47;13.52;;;5.53;;
79691;SDS011;69158;55.592;37.610;2023-04-25T07:34:33;15.15;;;7.05;;
79691;SDS011;69158;55.592;37.610;2023-04-25T07:37:22;17.92;;;5.68;;
79691;SDS011;69158;55.592;37.610;2023-04-25T07:42:44;12.30;;;5.53;;
79691;SDS011;69158;55.592;37.610;2023-04-25T07:45:30;16.67;;;5.10;;
79691;SDS011;69158;55.592;37.610;2023-04-25T07:48:19;12.73;;;5.43;;
79691;SDS011;69158;55.592;37.610;2023-04-25T07:51:05;10.73;;;4.50;;
79691;SDS011;69158;55.592;37.610;2023-04-25T07:53:51;10.70;;;5.00;;
79691;SDS011;69158;55.592;37.610;2023-04-25T07:56:37;11.32;;;6.82;;
79691;SDS011;69158;55.592;37.610;2023-04-25T07:59:23;11.13;;;4.57;;
79691;SDS011;69158;55.592;37.610;2023-04-25T08:02:09;9.25;;;5.32;;
79691;SDS011;69158;55.592;37.610;2023-04-25T08:04:56;11.35;;;4.90;;
79691;SDS011;69158;55.592;37.610;2023-04-25T08:07:43;10.70;;;5.47;;
79691;SDS011;69158;55.592;37.610;2023-04-25T08:10:29;12.50;;;4.70;;
79691;SDS011;69158;55.592;37.610;2023-04-25T08:13:15;10.32;;;4.13;;
79691;SDS011;69158;55.592;37.610;2023-04-25T08:16:01;10.05;;;4.50;;
79691;SDS011;69158;55.592;37.610;2023-04-25T08:18:47;12.18;;;5.05;;
79691;SDS011;69158;55.592;37.610;2023-04-25T08:21:35;13.80;;;6.00;;
79691;SDS011;69158;55.592;37.610;2023-04-25T08:24:22;15.25;;;5.63;;
79691;SDS011;69158;55.592;37.610;2023-04-25T08:27:08;14.27;;;4.50;;
79691;SDS011;69158;55.592;37.610;2023-04-25T08:29:55;11.15;;;4.13;;
79691;SDS011;69158;55.592;37.610;2023-04-25T08:32:41;10.43;;;4.40;;
79691;SDS011;69158;55.592;37.610;2023-04-25T08:35:27;10.50;;;5.63;;
79691;SDS011;69158;55.592;37.610;2023-04-25T08:38:13;14.18;;;4.28;;
79691;SDS011;69158;55.592;37.610;2023-04-25T08:40:59;11.07;;;5.57;;
79691;SDS011;69158;55.592;37.610;2023-04-25T08:43:51;9.27;;;4.57;;
79691;SDS011;69158;55.592;37.610;2023-04-25T08:46:44;9.45;;;4.75;;
79691;SDS011;69158;55.592;37.610;2023-04-25T08:49:35;11.57;;;5.05;;
79691;SDS011;69158;55.592;37.610;2023-04-25T08:52:23;10.20;;;4.40;;
79691;SDS011;69158;55.592;37.610;2023-04-25T08:55:12;13.38;;;4.30;;
79691;SDS011;69158;55.592;37.610;2023-04-25T08:58:09;13.38;;;4.95;;
79691;SDS011;69158;55.592;37.610;2023-04-25T09:01:13;10.65;;;4.95;;
79691;SDS011;69158;55.592;37.610;2023-04-25T09:03:59;9.57;;;4.28;;
79691;SDS011;69158;55.592;37.610;2023-04-25T09:06:45;13.50;;;4.80;;
79691;SDS011;69158;55.592;37.610;2023-04-25T09:09:32;9.18;;;4.03;;
79691;SDS011;69158;55.592;37.610;2023-04-25T09:12:21;9.32;;;3.10;;
79691;SDS011;69158;55.592;37.610;2023-04-25T09:15:09;10.05;;;3.50;;
79691;SDS011;69158;55.592;37.610;2023-04-25T09:17:58;13.77;;;3.08;;
79691;SDS011;69158;55.592;37.610;2023-04-25T09:20:45;10.68;;;3.78;;
79691;SDS011;69158;55.592;37.610;2023-04-25T09:23:31;8.05;;;3.88;;
79691;SDS011;69158;55.592;37.610;2023-04-25T09:26:25;11.68;;;3.78;;
79691;SDS011;69158;55.592;37.610;2023-04-25T09:29:11;7.25;;;3.67;;
79691;SDS011;69158;55.592;37.610;2023-04-25T09:32:19;9.00;;;4.13;;
79691;SDS011;69158;55.592;37.610;2023-04-25T09:35:07;9.25;;;5.53;;
79691;SDS011;69158;55.592;37.610;2023-04-25T09:37:53;11.13;;;3.55;;
79691;SDS011;69158;55.592;37.610;2023-04-25T09:40:43;9.45;;;4.15;;
79691;SDS011;69158;55.592;37.610;2023-04-25T09:43:31;11.25;;;3.28;;
79691;SDS011;69158;55.592;37.610;2023-04-25T09:46:17;8.27;;;3.95;;
79691;SDS011;69158;55.592;37.610;2023-04-25T09:49:06;8.52;;;3.08;;
79691;SDS011;69158;55.592;37.610;2023-04-25T09:51:56;8.80;;;3.35;;
79691;SDS011;69158;55.592;37.610;2023-04-25T09:54:43;11.32;;;3.10;;
79691;SDS011;69158;55.592;37.610;2023-04-25T09:57:31;9.95;;;3.28;;
79691;SDS011;69158;55.592;37.610;2023-04-25T10:00:17;9.40;;;3.95;;
79691;SDS011;69158;55.592;37.610;2023-04-25T10:03:05;10.80;;;4.38;;
79691;SDS011;69158;55.592;37.610;2023-04-25T10:05:51;7.18;;;4.22;;
79691;SDS011;69158;55.592;37.610;2023-04-25T10:08:38;11.30;;;4.55;;
79691;SDS011;69158;55.592;37.610;2023-04-25T10:11:24;7.60;;;3.03;;
79691;SDS011;69158;55.592;37.610;2023-04-25T10:14:12;9.00;;;4.85;;
79691;SDS011;69158;55.592;37.610;2023-04-25T10:16:59;9.23;;;4.65;;
79691;SDS011;69158;55.592;37.610;2023-04-25T10:19:48;7.68;;;4.00;;
79691;SDS011;69158;55.592;37.610;2023-04-25T10:25:25;8.48;;;4.32;;
79691;SDS011;69158;55.592;37.610;2023-04-25T10:28:13;8.77;;;3.83;;
79691;SDS011;69158;55.592;37.610;2023-04-25T10:30:59;13.40;;;3.88;;
79691;SDS011;69158;55.592;37.610;2023-04-25T10:33:48;8.32;;;3.70;;
79691;SDS011;69158;55.592;37.610;2023-04-25T10:36:34;9.77;;;4.32;;
79691;SDS011;69158;55.592;37.610;2023-04-25T10:39:25;6.78;;;3.28;;
79691;SDS011;69158;55.592;37.610;2023-04-25T10:42:15;8.65;;;2.63;;
79691;SDS011;69158;55.592;37.610;2023-04-25T10:45:04;9.57;;;5.70;;
79691;SDS011;69158;55.592;37.610;2023-04-25T10:47:52;9.15;;;3.35;;
79691;SDS011;69158;55.592;37.610;2023-04-25T10:50:39;10.10;;;3.83;;
79691;SDS011;69158;55.592;37.610;2023-04-25T10:53:30;8.18;;;3.65;;
79691;SDS011;69158;55.592;37.610;2023-04-25T10:56:21;10.98;;;2.83;;
79691;SDS011;69158;55.592;37.610;2023-04-25T10:59:12;8.68;;;3.05;;
79691;SDS011;69158;55.592;37.610;2023-04-25T11:02:00;9.38;;;3.33;;
79691;SDS011;69158;55.592;37.610;2023-04-25T11:04:58;8.75;;;3.05;;
79691;SDS011;69158;55.592;37.610;2023-04-25T11:10:39;9.15;;;2.55;;
79691;SDS011;69158;55.592;37.610;2023-04-25T11:13:29;8.45;;;2.65;;
79691;SDS011;69158;55.592;37.610;2023-04-25T11:16:16;7.93;;;3.00;;
79691;SDS011;69158;55.592;37.610;2023-04-25T11:19:09;7.78;;;2.65;;
79691;SDS011;69158;55.592;37.610;2023-04-25T11:21:56;8.65;;;3.13;;
79691;SDS011;69158;55.592;37.610;2023-04-25T11:24:42;10.52;;;2.65;;
79691;SDS011;69158;55.592;37.610;2023-04-25T11:27:28;9.25;;;3.00;;
79691;SDS011;69158;55.592;37.610;2023-04-25T11:30:14;12.38;;;2.83;;
79691;SDS011;69158;55.592;37.610;2023-04-25T11:33:01;7.80;;;2.53;;
79691;SDS011;69158;55.592;37.610;2023-04-25T11:35:48;8.02;;;2.30;;
79691;SDS011;69158;55.592;37.610;2023-04-25T11:38:35;7.10;;;2.63;;
79691;SDS011;69158;55.592;37.610;2023-04-25T11:41:21;8.93;;;2.85;;
79691;SDS011;69158;55.592;37.610;2023-04-25T11:44:07;7.40;;;2.72;;
79691;SDS011;69158;55.592;37.610;2023-04-25T11:46:53;9.70;;;3.75;;
79691;SDS011;69158;55.592;37.610;2023-04-25T11:49:41;6.13;;;2.30;;
79691;SDS011;69158;55.592;37.610;2023-04-25T11:52:40;7.68;;;2.28;;
79691;SDS011;69158;55.592;37.610;2023-04-25T11:55:30;10.77;;;2.90;;
79691;SDS011;69158;55.592;37.610;2023-04-25T11:58:16;8.50;;;2.28;;
79691;SDS011;69158;55.592;37.610;2023-04-25T12:01:02;11.30;;;3.03;;
79691;SDS011;69158;55.592;37.610;2023-04-25T12:03:50;10.02;;;4.18;;
79691;SDS011;69158;55.592;37.610;2023-04-25T12:06:37;8.65;;;3.75;;
79691;SDS011;69158;55.592;37.610;2023-04-25T12:09:32;12.93;;;2.70;;
79691;SDS011;69158;55.592;37.610;2023-04-25T12:12:19;9.68;;;2.75;;
79691;SDS011;69158;55.592;37.610;2023-04-25T12:15:12;8.30;;;3.22;;
79691;SDS011;69158;55.592;37.610;2023-04-25T12:18:00;8.70;;;2.95;;
79691;SDS011;69158;55.592;37.610;2023-04-25T12:20:47;12.30;;;3.25;;
79691;SDS011;69158;55.592;37.610;2023-04-25T12:23:33;7.80;;;2.45;;
79691;SDS011;69158;55.592;37.610;2023-04-25T12:26:20;9.38;;;2.40;;
79691;SDS011;69158;55.592;37.610;2023-04-25T12:29:15;8.15;;;2.95;;
79691;SDS011;69158;55.592;37.610;2023-04-25T12:32:05;10.23;;;2.60;;
79691;SDS011;69158;55.592;37.610;2023-04-25T12:34:53;15.60;;;2.63;;
79691;SDS011;69158;55.592;37.610;2023-04-25T12:37:38;10.85;;;2.78;;
79691;SDS011;69158;55.592;37.610;2023-04-25T12:40:25;7.05;;;2.53;;
79691;SDS011;69158;55.592;37.610;2023-04-25T12:43:11;9.18;;;3.30;;
79691;SDS011;69158;55.592;37.610;2023-04-25T12:45:57;8.73;;;3.13;;
79691;SDS011;69158;55.592;37.610;2023-04-25T12:48:43;10.00;;;2.63;;
79691;SDS011;69158;55.592;37.610;2023-04-25T12:51:29;10.27;;;2.58;;
79691;SDS011;69158;55.592;37.610;2023-04-25T12:54:15;10.13;;;2.90;;
79691;SDS011;69158;55.592;37.610;2023-04-25T12:57:01;9.27;;;3.15;;
79691;SDS011;69158;55.592;37.610;2023-04-25T12:59:48;8.60;;;2.50;;
79691;SDS011;69158;55.592;37.610;2023-04-25T13:02:34;7.47;;;2.25;;
79691;SDS011;69158;55.592;37.610;2023-04-25T13:05:21;10.70;;;4.40;;
79691;SDS011;69158;55.592;37.610;2023-04-25T13:08:07;10.65;;;2.95;;
79691;SDS011;69158;55.592;37.610;2023-04-25T13:10:53;11.60;;;3.10;;
79691;SDS011;69158;55.592;37.610;2023-04-25T13:13:39;10.65;;;3.05;;
79691;SDS011;69158;55.592;37.610;2023-04-25T13:16:25;8.43;;;3.20;;
79691;SDS011;69158;55.592;37.610;2023-04-25T13:19:11;14.07;;;4.15;;
79691;SDS011;69158;55.592;37.610;2023-04-25T13:21:58;7.82;;;2.90;;
79691;SDS011;69158;55.592;37.610;2023-04-25T13:24:49;12.30;;;5.18;;
79691;SDS011;69158;55.592;37.610;2023-04-25T13:27:35;16.95;;;5.53;;
79691;SDS011;69158;55.592;37.610;2023-04-25T13:30:22;9.70;;;3.88;;
79691;SDS011;69158;55.592;37.610;2023-04-25T13:33:09;11.65;;;4.10;;
79691;SDS011;69158;55.592;37.610;2023-04-25T13:35:55;10.15;;;4.03;;
79691;SDS011;69158;55.592;37.610;2023-04-25T13:38:42;14.65;;;4.00;;
79691;SDS011;69158;55.592;37.610;2023-04-25T13:41:30;11.90;;;3.60;;
79691;SDS011;69158;55.592;37.610;2023-04-25T13:44:16;12.68;;;3.30;;
79691;SDS011;69158;55.592;37.610;2023-04-25T13:47:02;12.32;;;5.07;;
79691;SDS011;69158;55.592;37.610;2023-04-25T13:49:49;10.40;;;2.97;;
79691;SDS011;69158;55.592;37.610;2023-04-25T13:52:35;8.10;;;3.10;;
79691;SDS011;69158;55.592;37.610;2023-04-25T13:55:21;6.80;;;3.05;;
79691;SDS011;69158;55.592;37.610;2023-04-25T13:58:09;6.03;;;2.40;;
79691;SDS011;69158;55.592;37.610;2023-04-25T14:00:57;7.47;;;2.63;;
79691;SDS011;69158;55.592;37.610;2023-04-25T14:03:44;7.55;;;3.03;;
79691;SDS011;69158;55.592;37.610;2023-04-25T14:06:37;7.20;;;2.90;;
79691;SDS011;69158;55.592;37.610;2023-04-25T14:09:24;7.75;;;3.78;;
79691;SDS011;69158;55.592;37.610;2023-04-25T14:12:19;12.77;;;2.92;;
79691;SDS011;69158;55.592;37.610;2023-04-25T14:15:05;14.90;;;3.72;;
79691;SDS011;69158;55.592;37.610;2023-04-25T14:17:52;12.00;;;3.20;;
79691;SDS011;69158;55.592;37.610;2023-04-25T14:20:38;10.98;;;3.40;;
79691;SDS011;69158;55.592;37.610;2023-04-25T14:23:27;9.07;;;3.20;;
79691;SDS011;69158;55.592;37.610;2023-04-25T14:26:13;9.63;;;4.35;;
79691;SDS011;69158;55.592;37.610;2023-04-25T14:28:58;9.40;;;3.05;;
79691;SDS011;69158;55.592;37.610;2023-04-25T14:31:45;8.82;;;3.90;;
79691;SDS011;69158;55.592;37.610;2023-04-25T14:34:31;9.00;;;4.30;;
79691;SDS011;69158;55.592;37.610;2023-04-25T14:37:17;7.68;;;2.97;;
79691;SDS011;69158;55.592;37.610;2023-04-25T14:40:03;7.72;;;3.22;;
79691;SDS011;69158;55.592;37.610;2023-04-25T14:42:51;9.77;;;3.80;;
79691;SDS011;69158;55.592;37.610;2023-04-25T14:45:37;9.45;;;4.35;;
79691;SDS011;69158;55.592;37.610;2023-04-25T14:48:23;12.43;;;4.63;;
79691;SDS011;69158;55.592;37.610;2023-04-25T14:51:09;11.27;;;4.47;;
79691;SDS011;69158;55.592;37.610;2023-04-25T14:53:55;10.50;;;3.55;;
79691;SDS011;69158;55.592;37.610;2023-04-25T14:56:41;8.50;;;3.88;;
79691;SDS011;69158;55.592;37.610;2023-04-25T14:59:28;8.80;;;4.20;;
79691;SDS011;69158;55.592;37.610;2023-04-25T15:02:15;9.55;;;3.78;;
79691;SDS011;69158;55.592;37.610;2023-04-25T15:05:01;11.57;;;4.03;;
79691;SDS011;69158;55.592;37.610;2023-04-25T15:07:47;12.57;;;4.30;;
79691;SDS011;69158;55.592;37.610;2023-04-25T15:10:33;9.35;;;5.15;;
79691;SDS011;69158;55.592;37.610;2023-04-25T15:13:19;11.82;;;5.03;;
79691;SDS011;69158;55.592;37.610;2023-04-25T15:16:06;12.82;;;5.32;;
79691;SDS011;69158;55.592;37.610;2023-04-25T15:18:52;10.85;;;5.18;;
79691;SDS011;69158;55.592;37.610;2023-04-25T15:21:39;11.27;;;5.53;;
79691;SDS011;69158;55.592;37.610;2023-04-25T15:24:25;12.98;;;4.75;;
79691;SDS011;69158;55.592;37.610;2023-04-25T15:27:12;11.45;;;4.97;;
79691;SDS011;69158;55.592;37.610;2023-04-25T15:29:58;11.65;;;4.18;;
79691;SDS011;69158;55.592;37.610;2023-04-25T15:32:44;14.15;;;4.22;;
79691;SDS011;69158;55.592;37.610;2023-04-25T15:35:31;14.57;;;4.93;;
79691;SDS011;69158;55.592;37.610;2023-04-25T15:38:17;12.95;;;5.63;;
79691;SDS011;69158;55.592;37.610;2023-04-25T15:41:04;12.40;;;5.28;;
79691;SDS011;69158;55.592;37.610;2023-04-25T15:43:50;9.60;;;4.43;;
79691;SDS011;69158;55.592;37.610;2023-04-25T15:50:01;10.43;;;5.32;;
79691;SDS011;69158;55.592;37.610;2023-04-25T15:52:49;13.93;;;5.65;;
79691;SDS011;69158;55.592;37.610;2023-04-25T15:55:36;12.73;;;5.78;;
79691;SDS011;69158;55.592;37.610;2023-04-25T15:58:22;10.82;;;5.03;;
79691;SDS011;69158;55.592;37.610;2023-04-25T16:01:08;13.43;;;5.30;;
79691;SDS011;69158;55.592;37.610;2023-04-25T16:03:55;15.27;;;4.95;;
79691;SDS011;69158;55.592;37.610;2023-04-25T16:06:44;11.13;;;5.78;;
79691;SDS011;69158;55.592;37.610;2023-04-25T16:09:31;13.45;;;5.50;;
79691;SDS011;69158;55.592;37.610;2023-04-25T16:12:18;14.77;;;5.07;;
79691;SDS011;69158;55.592;37.610;2023-04-25T16:15:04;12.40;;;4.60;;
79691;SDS011;69158;55.592;37.610;2023-04-25T16:17:54;12.65;;;5.47;;
79691;SDS011;69158;55.592;37.610;2023-04-25T16:20:43;14.70;;;7.25;;
79691;SDS011;69158;55.592;37.610;2023-04-25T16:23:33;14.77;;;5.50;;
79691;SDS011;69158;55.592;37.610;2023-04-25T16:26:19;18.30;;;5.65;;
79691;SDS011;69158;55.592;37.610;2023-04-25T16:29:07;17.73;;;6.95;;
79691;SDS011;69158;55.592;37.610;2023-04-25T16:31:53;17.08;;;7.15;;
79691;SDS011;69158;55.592;37.610;2023-04-25T16:34:39;15.55;;;6.07;;